createdAt,value
2023-12-09T00:01:05.918Z,10.90
2023-12-09T00:03:34.602Z,10.13
2023-12-09T00:06:03.345Z,10.00
2023-12-09T00:08:31.883Z,12.57
2023-12-09T00:11:00.206Z,11.73
2023-12-09T00:13:28.908Z,10.13
2023-12-09T00:15:57.366Z,10.90
2023-12-09T00:18:27.212Z,9.97
2023-12-09T00:20:55.883Z,10.70
2023-12-09T00:23:24.583Z,9.97
2023-12-09T00:25:52.884Z,10.50
2023-12-09T00:28:21.564Z,10.07
2023-12-09T00:30:49.827Z,10.13
2023-12-09T00:33:18.396Z,9.87
2023-12-09T00:35:48.410Z,11.27
2023-12-09T00:38:16.893Z,10.20
2023-12-09T00:40:45.360Z,9.97
2023-12-09T00:43:13.660Z,9.67
2023-12-09T00:45:42.236Z,11.47
2023-12-09T00:48:10.833Z,13.77
2023-12-09T00:50:39.232Z,13.43
2023-12-09T00:53:08.988Z,11.17
2023-12-09T00:55:37.567Z,9.00
2023-12-09T00:58:05.920Z,8.60
2023-12-09T01:00:34.535Z,10.17
2023-12-09T01:03:03.134Z,9.83
2023-12-09T01:05:31.994Z,10.07
2023-12-09T01:08:00.478Z,10.87
2023-12-09T01:10:30.454Z,12.20
2023-12-09T01:12:58.983Z,11.07
2023-12-09T01:15:27.520Z,9.50
2023-12-09T01:17:56.341Z,11.10
2023-12-09T01:20:26.180Z,11.90
2023-12-09T01:22:54.677Z,13.07
2023-12-09T01:25:23.103Z,10.63
2023-12-09T01:27:53.926Z,11.83
2023-12-09T01:30:24.040Z,11.30
2023-12-09T01:32:52.995Z,11.13
2023-12-09T01:35:21.674Z,10.93
2023-12-09T01:37:50.028Z,10.00
2023-12-09T01:40:18.475Z,17.57
2023-12-09T01:42:47.113Z,15.77
2023-12-09T01:45:17.215Z,13.93
2023-12-09T01:47:46.211Z,11.03
2023-12-09T01:50:14.890Z,9.90
2023-12-09T01:52:44.299Z,10.50
2023-12-09T01:55:13.670Z,8.93
2023-12-09T01:57:42.534Z,7.93
2023-12-09T02:00:13.489Z,8.50
2023-12-09T02:02:43.592Z,8.80
2023-12-09T02:05:13.887Z,8.27
2023-12-09T02:07:42.299Z,8.47
2023-12-09T02:10:11.586Z,7.87
2023-12-09T02:12:45.384Z,8.40
2023-12-09T02:15:19.318Z,8.20
2023-12-09T02:17:55.551Z,8.27
2023-12-09T02:20:24.252Z,8.17
2023-12-09T02:22:53.078Z,7.67
2023-12-09T02:25:22.822Z,8.50
2023-12-09T02:27:59.916Z,8.97
2023-12-09T02:30:34.648Z,7.47
2023-12-09T02:33:04.465Z,9.20
2023-12-09T02:35:39.027Z,7.80
2023-12-09T02:38:07.743Z,7.90
2023-12-09T02:40:38.857Z,7.67
2023-12-09T02:43:07.601Z,8.03
2023-12-09T02:45:36.271Z,9.67
2023-12-09T02:48:05.408Z,8.07
2023-12-09T02:50:34.017Z,8.13
2023-12-09T02:53:02.563Z,7.80
2023-12-09T02:55:31.062Z,8.17
2023-12-09T02:58:00.779Z,8.10
2023-12-09T03:00:29.341Z,7.70
2023-12-09T03:02:57.997Z,7.37
2023-12-09T03:05:26.776Z,7.57
2023-12-09T03:07:55.419Z,7.77
2023-12-09T03:10:23.948Z,6.70
2023-12-09T03:12:52.669Z,6.67
2023-12-09T03:15:22.843Z,6.40
2023-12-09T03:17:51.531Z,6.93
2023-12-09T03:20:22.049Z,7.37
2023-12-09T03:22:50.320Z,7.00
2023-12-09T03:25:18.678Z,6.70
2023-12-09T03:27:46.954Z,7.40
2023-12-09T03:30:15.865Z,7.23
2023-12-09T03:32:45.664Z,7.40
2023-12-09T03:35:14.554Z,7.30
2023-12-09T03:37:42.988Z,7.80
2023-12-09T03:40:12.829Z,6.57
2023-12-09T03:42:41.388Z,6.23
2023-12-09T03:45:10.291Z,6.73
2023-12-09T03:47:38.939Z,7.70
2023-12-09T03:50:10.150Z,7.83
2023-12-09T03:52:39.258Z,7.73
2023-12-09T03:55:07.871Z,7.33
2023-12-09T03:57:36.499Z,6.40
2023-12-09T04:00:06.989Z,7.23
2023-12-09T04:02:35.478Z,6.20
2023-12-09T04:05:04.765Z,7.50
2023-12-09T04:07:35.448Z,6.53
2023-12-09T04:10:04.538Z,6.90
2023-12-09T04:12:32.926Z,8.03
2023-12-09T04:15:02.633Z,7.43
2023-12-09T04:17:31.128Z,6.77
2023-12-09T04:19:59.613Z,7.23
2023-12-09T04:22:28.081Z,8.03
2023-12-09T04:24:58.115Z,7.10
2023-12-09T04:27:26.495Z,7.27
2023-12-09T04:29:55.059Z,8.00
2023-12-09T04:32:23.710Z,7.63
2023-12-09T04:34:52.069Z,7.27
2023-12-09T04:37:20.475Z,7.37
2023-12-09T04:39:49.057Z,8.33
2023-12-09T04:42:19.572Z,7.13
2023-12-09T04:44:48.238Z,7.43
2023-12-09T04:47:16.660Z,7.53
2023-12-09T04:49:45.109Z,7.73
2023-12-09T04:52:13.659Z,7.90
2023-12-09T04:54:42.306Z,8.00
2023-12-09T04:57:10.840Z,7.27
2023-12-09T04:59:40.732Z,7.40
2023-12-09T05:02:09.292Z,7.23
2023-12-09T05:04:37.793Z,6.57
2023-12-09T05:07:06.746Z,7.13
2023-12-09T05:09:35.332Z,6.90
2023-12-09T05:12:03.698Z,6.80
2023-12-09T05:14:32.145Z,7.83
2023-12-09T05:17:02.253Z,6.77
2023-12-09T05:19:30.961Z,6.57
2023-12-09T05:21:59.271Z,7.93
2023-12-09T05:24:27.646Z,7.20
2023-12-09T05:26:58.704Z,6.43
2023-12-09T05:29:27.267Z,6.70
2023-12-09T05:31:55.936Z,6.13
2023-12-09T05:34:25.737Z,5.90
2023-12-09T05:36:54.141Z,6.00
2023-12-09T05:39:22.669Z,6.23
2023-12-09T05:41:51.420Z,6.97
2023-12-09T05:44:20.391Z,12.13
2023-12-09T05:46:48.763Z,9.40
2023-12-09T05:49:17.734Z,7.93
2023-12-09T05:51:47.781Z,10.90
2023-12-09T05:54:16.351Z,10.00
2023-12-09T05:56:50.477Z,9.57
2023-12-09T05:59:19.322Z,9.30
2023-12-09T06:01:47.645Z,9.33
2023-12-09T06:04:15.988Z,10.63
2023-12-09T06:06:44.591Z,9.87
2023-12-09T06:09:14.588Z,8.10
2023-12-09T06:11:42.968Z,8.10
2023-12-09T06:14:11.513Z,8.07
2023-12-09T06:16:40.177Z,7.80
2023-12-09T06:19:08.729Z,6.90
2023-12-09T06:21:37.247Z,6.80
2023-12-09T06:24:06.564Z,7.73
2023-12-09T06:26:37.165Z,7.00
2023-12-09T06:29:05.551Z,8.43
2023-12-09T06:31:33.814Z,8.37
2023-12-09T06:34:02.288Z,7.63
2023-12-09T06:36:31.125Z,8.50
2023-12-09T06:39:00.128Z,8.90
2023-12-09T06:41:29.258Z,8.83
2023-12-09T06:43:59.104Z,9.27
2023-12-09T06:46:27.559Z,9.50
2023-12-09T06:48:56.188Z,9.80
2023-12-09T06:51:24.890Z,10.37
2023-12-09T06:53:53.376Z,11.10
2023-12-09T06:56:22.073Z,15.80
2023-12-09T06:58:51.006Z,13.77
2023-12-09T07:01:32.352Z,21.50
2023-12-09T07:04:00.972Z,22.60
2023-12-09T07:06:30.850Z,14.80
2023-12-09T07:08:59.673Z,12.20
2023-12-09T07:11:28.155Z,11.70
2023-12-09T07:13:56.413Z,7.50
2023-12-09T07:16:26.095Z,6.23
2023-12-09T07:19:01.209Z,5.80
2023-12-09T07:21:30.313Z,6.10
2023-12-09T07:23:58.865Z,6.00
2023-12-09T07:26:27.242Z,5.97
2023-12-09T07:28:55.680Z,5.97
2023-12-09T07:31:25.466Z,6.20
2023-12-09T07:33:54.465Z,5.83
2023-12-09T07:36:22.890Z,5.63
2023-12-09T07:38:51.398Z,6.00
2023-12-09T07:41:20.033Z,6.57
2023-12-09T07:43:48.445Z,5.97
2023-12-09T07:46:17.008Z,5.40
2023-12-09T07:48:46.977Z,5.00
2023-12-09T07:51:15.926Z,5.53
2023-12-09T07:53:44.566Z,6.10
2023-12-09T07:56:13.029Z,5.50
2023-12-09T07:58:41.343Z,5.67
2023-12-09T08:01:11.622Z,5.80
2023-12-09T08:03:40.817Z,5.07
2023-12-09T08:06:11.453Z,5.83
2023-12-09T08:08:39.990Z,6.33
2023-12-09T08:11:08.557Z,6.00
2023-12-09T08:13:37.057Z,5.07
2023-12-09T08:16:06.712Z,5.50
2023-12-09T08:18:35.276Z,7.90
2023-12-09T08:21:04.401Z,5.37
2023-12-09T08:23:34.322Z,5.00
2023-12-09T08:26:03.041Z,5.37
2023-12-09T08:28:31.743Z,4.87
2023-12-09T08:31:00.199Z,5.40
2023-12-09T08:33:29.318Z,4.93
2023-12-09T08:35:57.980Z,4.97
2023-12-09T08:38:26.408Z,4.23
2023-12-09T08:40:56.834Z,4.53
2023-12-09T08:43:26.210Z,3.83
2023-12-09T08:45:54.842Z,3.97
2023-12-09T08:48:23.653Z,4.00
2023-12-09T08:50:52.037Z,4.00
2023-12-09T08:53:20.559Z,4.10
2023-12-09T08:55:49.167Z,3.77
2023-12-09T08:58:19.055Z,3.50
2023-12-09T09:00:50.086Z,3.47
2023-12-09T09:03:20.540Z,4.03
2023-12-09T09:05:49.291Z,3.60
2023-12-09T09:08:17.776Z,3.20
2023-12-09T09:10:46.357Z,3.47
2023-12-09T09:13:15.062Z,3.30
2023-12-09T09:15:45.072Z,3.37
2023-12-09T09:18:14.987Z,3.80
2023-12-09T09:20:44.277Z,3.53
2023-12-09T09:23:14.066Z,3.73
2023-12-09T09:25:42.336Z,3.90
2023-12-09T09:28:10.696Z,3.50
2023-12-09T09:30:39.074Z,2.97
2023-12-09T09:33:09.900Z,3.17
2023-12-09T09:35:38.592Z,3.60
2023-12-09T09:38:06.903Z,4.10
2023-12-09T09:40:35.452Z,3.50
2023-12-09T09:43:15.580Z,3.60
2023-12-09T09:45:46.560Z,3.10
2023-12-09T09:48:19.113Z,3.33
2023-12-09T09:50:49.525Z,2.97
2023-12-09T09:53:23.682Z,3.33
2023-12-09T09:55:54.202Z,3.20
2023-12-09T09:58:23.216Z,3.20
2023-12-09T10:00:53.727Z,2.90
2023-12-09T10:03:23.810Z,2.90
2023-12-09T10:05:54.276Z,2.87
2023-12-09T10:08:22.873Z,3.20
2023-12-09T10:10:51.420Z,3.50
2023-12-09T10:13:20.028Z,3.20
2023-12-09T10:15:48.423Z,2.60
2023-12-09T10:18:17.203Z,3.00
2023-12-09T10:20:49.592Z,2.40
2023-12-09T10:23:19.253Z,2.80
2023-12-09T10:25:49.298Z,3.13
2023-12-09T10:28:18.145Z,11.50
2023-12-09T10:30:48.055Z,5.20
2023-12-09T10:33:17.466Z,3.37
2023-12-09T10:35:48.257Z,2.83
2023-12-09T10:38:18.443Z,3.33
2023-12-09T10:40:46.828Z,3.50
2023-12-09T10:43:15.833Z,3.70
2023-12-09T10:45:44.840Z,6.30
2023-12-09T10:48:13.495Z,4.37
2023-12-09T10:50:42.038Z,3.43
2023-12-09T10:53:11.992Z,5.67
2023-12-09T10:55:40.786Z,4.23
2023-12-09T10:58:09.572Z,4.10
2023-12-09T11:00:38.997Z,3.40
2023-12-09T11:03:08.815Z,3.60
2023-12-09T11:05:47.014Z,3.13
2023-12-09T11:08:17.915Z,2.93
2023-12-09T11:10:49.353Z,3.13
2023-12-09T11:13:20.075Z,7.37
2023-12-09T11:15:48.973Z,11.07
2023-12-09T11:18:19.251Z,6.13
2023-12-09T11:20:53.495Z,5.47
2023-12-09T11:23:23.513Z,6.80
2023-12-09T11:25:52.263Z,5.90
2023-12-09T11:28:22.383Z,6.67
2023-12-09T11:30:50.925Z,4.57
2023-12-09T11:33:19.608Z,5.77
2023-12-09T11:35:49.045Z,4.67
2023-12-09T11:38:18.992Z,5.87
2023-12-09T11:40:49.256Z,3.97
2023-12-09T11:43:18.967Z,3.10
2023-12-09T11:45:49.363Z,3.70
2023-12-09T11:48:18.619Z,3.50
2023-12-09T11:50:47.053Z,3.37
2023-12-09T11:53:15.770Z,2.93
2023-12-09T11:55:45.302Z,4.30
2023-12-09T11:58:15.249Z,4.00
2023-12-09T12:00:43.608Z,3.43
2023-12-09T12:03:12.011Z,3.60
2023-12-09T12:05:40.678Z,2.97
2023-12-09T12:08:09.796Z,3.23
2023-12-09T12:10:38.628Z,3.33
2023-12-09T12:13:07.189Z,3.80
2023-12-09T12:15:37.226Z,4.80
2023-12-09T12:18:06.914Z,3.83
2023-12-09T12:20:35.630Z,5.80
2023-12-09T12:23:05.299Z,5.63
2023-12-09T12:25:34.196Z,5.43
2023-12-09T12:28:03.357Z,4.50
2023-12-09T12:30:33.789Z,4.23
2023-12-09T12:33:05.029Z,8.10
2023-12-09T12:35:35.560Z,8.10
2023-12-09T12:38:04.217Z,5.27
2023-12-09T12:40:33.294Z,3.83
2023-12-09T12:43:06.248Z,4.03
2023-12-09T12:45:35.164Z,3.93
2023-12-09T12:48:05.689Z,5.30
2023-12-09T12:50:34.497Z,5.10
2023-12-09T12:53:03.032Z,3.90
2023-12-09T12:55:31.717Z,3.87
2023-12-09T12:58:00.384Z,4.07
2023-12-09T13:00:31.730Z,3.70
2023-12-09T13:03:00.687Z,4.63
2023-12-09T13:05:31.209Z,4.80
2023-12-09T13:08:00.599Z,4.57
2023-12-09T13:10:29.312Z,4.90
2023-12-09T13:12:58.142Z,3.60
2023-12-09T13:15:27.039Z,3.60
2023-12-09T13:17:56.661Z,3.37
2023-12-09T13:20:25.485Z,3.50
2023-12-09T13:22:55.865Z,3.37
2023-12-09T13:25:24.571Z,3.63
2023-12-09T13:27:53.627Z,3.27
2023-12-09T13:30:23.364Z,3.90
2023-12-09T13:32:52.392Z,3.90
2023-12-09T13:35:21.007Z,3.73
2023-12-09T13:37:49.863Z,3.50
2023-12-09T13:40:20.384Z,5.17
2023-12-09T13:42:49.730Z,4.03
2023-12-09T13:45:19.402Z,3.50
2023-12-09T13:47:48.302Z,4.63
2023-12-09T13:50:17.229Z,4.80
2023-12-09T13:52:45.915Z,5.23
2023-12-09T13:55:15.467Z,3.97
2023-12-09T13:57:45.747Z,3.67
2023-12-09T14:00:17.148Z,3.77
2023-12-09T14:02:46.319Z,3.70
2023-12-09T14:05:15.767Z,3.63
2023-12-09T14:07:44.813Z,4.40
2023-12-09T14:10:14.504Z,3.97
2023-12-09T14:12:45.682Z,3.80
2023-12-09T14:15:14.666Z,3.33
2023-12-09T14:17:45.422Z,3.23
2023-12-09T14:20:17.207Z,3.03
2023-12-09T14:22:47.549Z,4.07
2023-12-09T14:25:16.239Z,3.27
2023-12-09T14:27:46.514Z,3.20
2023-12-09T14:30:15.800Z,4.17
2023-12-09T14:32:46.073Z,4.37
2023-12-09T14:35:16.472Z,6.53
2023-12-09T14:37:49.396Z,4.50
2023-12-09T14:40:18.829Z,4.00
2023-12-09T14:42:49.054Z,3.80
2023-12-09T14:45:17.763Z,4.83
2023-12-09T14:47:54.120Z,5.37
2023-12-09T14:50:30.675Z,5.20
2023-12-09T14:53:00.278Z,4.50
2023-12-09T14:55:28.636Z,4.80
2023-12-09T14:57:58.887Z,4.40
2023-12-09T15:00:28.636Z,3.70
2023-12-09T15:02:57.513Z,3.70
2023-12-09T15:05:26.841Z,3.83
2023-12-09T15:07:55.493Z,7.40
2023-12-09T15:10:24.740Z,7.70
2023-12-09T15:12:53.540Z,5.50
2023-12-09T15:15:23.605Z,4.10
2023-12-09T15:17:52.311Z,6.30
2023-12-09T15:20:21.144Z,5.50
2023-12-09T15:22:50.570Z,5.07
2023-12-09T15:25:19.303Z,6.87
2023-12-09T15:27:48.462Z,5.77
2023-12-09T15:30:19.974Z,5.40
2023-12-09T15:32:51.108Z,6.17
2023-12-09T15:35:20.205Z,8.00
2023-12-09T15:37:49.085Z,7.30
2023-12-09T15:40:17.849Z,6.30
2023-12-09T15:42:46.332Z,6.40
2023-12-09T15:45:15.286Z,6.27
2023-12-09T15:47:44.250Z,5.30
2023-12-09T15:50:14.385Z,4.87
2023-12-09T15:52:43.542Z,4.60
2023-12-09T15:55:12.150Z,4.87
2023-12-09T15:57:41.428Z,4.67
2023-12-09T16:00:11.334Z,4.33
2023-12-09T16:02:41.982Z,4.27
2023-12-09T16:05:14.630Z,4.60
2023-12-09T16:07:44.549Z,3.97
2023-12-09T16:10:13.550Z,4.90
2023-12-09T16:12:46.552Z,4.23
2023-12-09T16:15:15.950Z,4.27
2023-12-09T16:17:44.768Z,4.40
2023-12-09T16:20:16.104Z,4.57
2023-12-09T16:22:44.897Z,4.90
2023-12-09T16:25:13.448Z,4.30
2023-12-09T16:27:42.124Z,4.90
2023-12-09T16:30:12.131Z,4.87
2023-12-09T16:32:40.776Z,5.87
2023-12-09T16:35:10.111Z,6.00
2023-12-09T16:37:41.394Z,5.73
2023-12-09T16:40:12.231Z,7.53
2023-12-09T16:42:40.883Z,8.60
2023-12-09T16:45:12.621Z,6.43
2023-12-09T16:47:42.648Z,6.40
2023-12-09T16:50:12.279Z,6.10
2023-12-09T16:52:42.411Z,6.80
2023-12-09T16:55:11.988Z,8.07
2023-12-09T16:57:40.603Z,8.23
2023-12-09T17:00:11.291Z,8.40
2023-12-09T17:02:39.966Z,8.47
2023-12-09T17:05:11.188Z,8.97
2023-12-09T17:07:41.355Z,8.17
2023-12-09T17:10:10.587Z,7.53
2023-12-09T17:12:40.761Z,7.30
2023-12-09T17:15:18.138Z,8.30
2023-12-09T17:17:47.418Z,8.53
2023-12-09T17:20:16.073Z,8.63
2023-12-09T17:22:49.467Z,9.03
2023-12-09T17:25:19.000Z,10.07
2023-12-09T17:27:51.828Z,12.63
2023-12-09T17:30:20.945Z,22.47
2023-12-09T17:32:50.822Z,10.57
2023-12-09T17:35:20.149Z,18.27
2023-12-09T17:37:50.042Z,19.60
2023-12-09T17:40:19.298Z,15.87
2023-12-09T17:42:47.986Z,17.17
2023-12-09T17:45:16.987Z,10.60
2023-12-09T17:47:45.473Z,8.87
2023-12-09T17:50:13.955Z,11.37
2023-12-09T17:52:42.632Z,9.90
2023-12-09T17:55:14.131Z,9.80
2023-12-09T17:57:42.724Z,7.90
2023-12-09T18:00:12.770Z,10.23
2023-12-09T18:02:41.332Z,11.20
2023-12-09T18:05:10.897Z,10.33
2023-12-09T18:07:40.080Z,7.70
2023-12-09T18:10:09.727Z,8.97
2023-12-09T18:12:39.761Z,10.00
2023-12-09T18:15:09.356Z,9.97
2023-12-09T18:17:38.828Z,9.87
2023-12-09T18:20:08.507Z,10.67
2023-12-09T18:22:37.219Z,9.03
2023-12-09T18:25:06.767Z,10.33
2023-12-09T18:27:36.346Z,10.70
2023-12-09T18:30:07.543Z,10.53
2023-12-09T18:32:39.825Z,13.10
2023-12-09T18:35:12.374Z,13.90
2023-12-09T18:37:41.639Z,10.63
2023-12-09T18:40:11.134Z,12.30
2023-12-09T18:42:39.741Z,12.00
2023-12-09T18:45:10.822Z,13.73
2023-12-09T18:47:40.567Z,14.10
2023-12-09T18:50:09.430Z,14.77
2023-12-09T18:52:38.040Z,12.57
2023-12-09T18:55:08.635Z,12.90
2023-12-09T18:57:37.502Z,13.03
2023-12-09T19:00:07.764Z,16.10
2023-12-09T19:02:37.620Z,14.80
2023-12-09T19:05:06.891Z,12.47
2023-12-09T19:07:36.114Z,14.00
2023-12-09T19:10:06.339Z,13.60
2023-12-09T19:12:35.094Z,13.10
2023-12-09T19:15:03.756Z,13.43
2023-12-09T19:17:32.572Z,15.43
2023-12-09T19:20:04.790Z,13.93
2023-12-09T19:22:33.390Z,15.27
2023-12-09T19:25:01.755Z,15.03
2023-12-09T19:27:30.218Z,14.53
2023-12-09T19:29:58.716Z,14.60
2023-12-09T19:32:28.282Z,14.30
2023-12-09T19:34:56.989Z,13.87
2023-12-09T19:37:26.935Z,14.83
2023-12-09T19:39:56.132Z,15.33
2023-12-09T19:42:24.780Z,16.27
2023-12-09T19:44:53.385Z,17.13
2023-12-09T19:47:21.879Z,15.57
2023-12-09T19:49:50.657Z,14.33
2023-12-09T19:52:19.186Z,14.13
2023-12-09T19:54:49.268Z,14.10
2023-12-09T19:57:17.753Z,13.90
2023-12-09T19:59:47.944Z,12.60
2023-12-09T20:02:16.356Z,14.03
2023-12-09T20:04:44.848Z,17.27
2023-12-09T20:07:13.332Z,16.07
2023-12-09T20:09:41.729Z,16.63
2023-12-09T20:12:12.120Z,20.73
2023-12-09T20:14:41.157Z,18.93
2023-12-09T20:17:09.595Z,18.10
2023-12-09T20:19:38.768Z,17.97
2023-12-09T20:22:07.353Z,20.63
2023-12-09T20:24:36.598Z,19.37
2023-12-09T20:27:05.235Z,17.17
2023-12-09T20:29:35.585Z,15.20
2023-12-09T20:32:04.533Z,15.27
2023-12-09T20:34:33.744Z,12.93
2023-12-09T20:37:02.610Z,14.63
2023-12-09T20:39:31.226Z,16.07
2023-12-09T20:41:59.830Z,14.27
2023-12-09T20:44:28.320Z,16.60
2023-12-09T20:46:58.157Z,15.80
2023-12-09T20:49:26.572Z,13.40
2023-12-09T20:51:55.494Z,15.50
2023-12-09T20:54:23.955Z,16.93
2023-12-09T20:56:52.364Z,16.10
2023-12-09T20:59:21.831Z,17.60
2023-12-09T21:01:53.643Z,14.53
2023-12-09T21:04:25.402Z,16.60
2023-12-09T21:06:54.049Z,14.97
2023-12-09T21:09:23.677Z,13.47
2023-12-09T21:11:53.346Z,13.60
2023-12-09T21:14:21.743Z,16.93
2023-12-09T21:16:50.219Z,17.27
2023-12-09T21:19:18.904Z,19.33
2023-12-09T21:21:48.914Z,18.83
2023-12-09T21:24:17.730Z,19.33
2023-12-09T21:26:46.279Z,18.43
2023-12-09T21:29:14.744Z,22.63
2023-12-09T21:31:43.184Z,18.27
2023-12-09T21:34:13.091Z,17.50
2023-12-09T21:36:41.634Z,16.07
2023-12-09T21:39:12.755Z,16.53
2023-12-09T21:41:41.159Z,16.27
2023-12-09T21:44:10.258Z,17.90
2023-12-09T21:46:38.654Z,16.53
2023-12-09T21:49:07.075Z,18.03
2023-12-09T21:51:40.635Z,20.53
2023-12-09T21:54:10.786Z,20.47
2023-12-09T21:56:39.143Z,21.03
2023-12-09T21:59:07.457Z,21.13
2023-12-09T22:01:38.337Z,20.50
2023-12-09T22:04:07.414Z,23.23
2023-12-09T22:06:36.090Z,22.57
2023-12-09T22:09:04.569Z,18.97
2023-12-09T22:11:34.399Z,16.93
2023-12-09T22:14:02.836Z,18.10
2023-12-09T22:16:31.430Z,17.93
2023-12-09T22:18:59.926Z,18.10
2023-12-09T22:21:28.658Z,16.83
2023-12-09T22:23:57.105Z,15.40
2023-12-09T22:26:25.712Z,16.53
2023-12-09T22:28:55.762Z,16.40
2023-12-09T22:31:24.256Z,16.30
2023-12-09T22:33:53.252Z,17.00
2023-12-09T22:36:22.634Z,15.23
2023-12-09T22:38:52.121Z,16.53
2023-12-09T22:41:22.426Z,17.17
2023-12-09T22:43:51.412Z,16.53
2023-12-09T22:46:28.761Z,16.80
2023-12-09T22:48:57.489Z,17.90
2023-12-09T22:51:26.644Z,16.53
2023-12-09T22:53:55.170Z,16.40
2023-12-09T22:56:24.477Z,17.13
2023-12-09T22:58:54.079Z,17.53
2023-12-09T23:01:28.836Z,19.37
2023-12-09T23:03:57.345Z,18.97
2023-12-09T23:06:26.024Z,18.73
2023-12-09T23:08:54.697Z,17.37
2023-12-09T23:11:23.110Z,19.97
2023-12-09T23:13:51.508Z,19.40
2023-12-09T23:16:20.010Z,24.60
2023-12-09T23:18:50.207Z,19.57
2023-12-09T23:21:18.755Z,19.40
2023-12-09T23:23:47.160Z,19.27
2023-12-09T23:26:15.642Z,17.50
2023-12-09T23:28:44.127Z,19.13
2023-12-09T23:31:12.548Z,18.80
2023-12-09T23:33:43.714Z,16.67
2023-12-09T23:36:13.892Z,17.90
2023-12-09T23:38:42.389Z,17.17
2023-12-09T23:41:15.094Z,18.97
2023-12-09T23:43:43.811Z,20.37
2023-12-09T23:46:16.540Z,21.27
2023-12-09T23:48:44.972Z,18.13
2023-12-09T23:51:14.945Z,17.70
2023-12-09T23:53:43.589Z,17.50
2023-12-09T23:56:12.289Z,16.47
2023-12-09T23:58:41.020Z,16.83
